createdAt,value
2022-12-09T00:00:18.599Z,150948.28
2022-12-09T00:02:48.882Z,150947.00
2022-12-09T00:05:21.641Z,150952.16
2022-12-09T00:07:52.236Z,150956.03
2022-12-09T00:10:22.503Z,150956.03
2022-12-09T00:12:52.990Z,150952.16
2022-12-09T00:15:23.576Z,150958.63
2022-12-09T00:17:53.940Z,150961.16
2022-12-09T00:20:26.624Z,150965.03
2022-12-09T00:22:56.769Z,150971.47
2022-12-09T00:26:17.376Z,150975.34
2022-12-09T00:28:48.533Z,150977.88
2022-12-09T00:31:20.657Z,150980.47
2022-12-09T00:33:50.822Z,150984.34
2022-12-09T00:36:25.669Z,150977.88
2022-12-09T00:38:58.065Z,150981.75
2022-12-09T00:42:18.842Z,150988.22
2022-12-09T00:44:56.450Z,150988.22
2022-12-09T00:47:26.586Z,150989.50
2022-12-09T00:50:12.956Z,150992.03
2022-12-09T00:52:45.855Z,150992.03
2022-12-09T00:55:17.533Z,150999.78
2022-12-09T00:57:47.814Z,151002.34
2022-12-09T01:00:25.942Z,151006.19
2022-12-09T01:02:56.260Z,151004.94
2022-12-09T01:05:26.625Z,151004.94
2022-12-09T01:07:59.771Z,151006.19
2022-12-09T01:10:30.047Z,151008.81
2022-12-09T01:13:00.241Z,151016.50
2022-12-09T01:15:32.112Z,151020.38
2022-12-09T01:18:03.350Z,151026.78
2022-12-09T01:20:33.594Z,151022.97
2022-12-09T01:23:06.509Z,151026.78
2022-12-09T01:25:36.626Z,151031.94
2022-12-09T01:28:06.778Z,151031.94
2022-12-09T01:30:40.665Z,151039.69
2022-12-09T01:33:11.555Z,151042.28
2022-12-09T01:35:43.984Z,151040.94
2022-12-09T01:38:16.718Z,151051.25
2022-12-09T01:40:49.412Z,151055.13
2022-12-09T01:43:20.828Z,151070.56
2022-12-09T01:45:51.844Z,151074.44
2022-12-09T01:48:23.829Z,151074.44
2022-12-09T01:50:57.057Z,151086.00
2022-12-09T01:53:32.811Z,151091.16
2022-12-09T01:56:09.446Z,151091.16
2022-12-09T01:58:39.856Z,151092.47
2022-12-09T02:01:11.302Z,151095.00
2022-12-09T02:03:41.842Z,151093.75
2022-12-09T02:06:12.768Z,151106.63
2022-12-09T02:08:54.102Z,151104.03
2022-12-09T02:11:37.532Z,151106.63
2022-12-09T02:14:13.525Z,151116.94
2022-12-09T02:16:54.519Z,151127.22
2022-12-09T02:19:38.330Z,151124.63
2022-12-09T02:22:11.643Z,151132.38
2022-12-09T02:24:49.896Z,151140.06
2022-12-09T02:27:24.629Z,151142.66
2022-12-09T02:30:09.833Z,151141.41
2022-12-09T02:33:01.331Z,151142.66
2022-12-09T02:35:42.799Z,151142.66
2022-12-09T02:38:16.848Z,151140.06
2022-12-09T02:40:53.335Z,151145.22
2022-12-09T02:43:27.565Z,151152.97
2022-12-09T02:46:01.279Z,151150.41
2022-12-09T02:48:37.963Z,151145.22
2022-12-09T02:51:14.169Z,151151.69
2022-12-09T02:53:46.114Z,151150.41
2022-12-09T02:56:18.640Z,151150.41
2022-12-09T02:58:49.065Z,151151.69
2022-12-09T03:01:26.598Z,151155.56
2022-12-09T03:03:58.040Z,151151.69
2022-12-09T03:06:39.110Z,151149.09
2022-12-09T03:09:12.981Z,151150.41
2022-12-09T03:11:44.411Z,151150.41
2022-12-09T03:14:18.803Z,151155.56
2022-12-09T03:16:57.970Z,151154.25
2022-12-09T03:19:35.677Z,151155.56
2022-12-09T03:22:12.298Z,151151.69
2022-12-09T03:24:47.980Z,151154.25
2022-12-09T03:27:22.662Z,151156.84
2022-12-09T03:29:55.245Z,151162.00
2022-12-09T03:32:30.545Z,151155.56
2022-12-09T03:35:04.848Z,151158.13
2022-12-09T03:37:41.484Z,151163.25
2022-12-09T03:40:18.127Z,151162.00
2022-12-09T03:42:54.240Z,151163.25
2022-12-09T03:45:26.125Z,151160.72
2022-12-09T03:47:57.903Z,151164.53
2022-12-09T03:50:34.479Z,151167.13
2022-12-09T03:53:12.392Z,151162.00
2022-12-09T03:55:47.674Z,151162.00
2022-12-09T03:58:19.884Z,151169.69
2022-12-09T04:00:52.253Z,151165.84
2022-12-09T04:03:22.771Z,151168.41
2022-12-09T04:05:53.025Z,151169.69
2022-12-09T04:08:26.616Z,151163.25
2022-12-09T04:10:56.827Z,151168.41
2022-12-09T04:13:26.957Z,151168.41
2022-12-09T04:15:58.107Z,151173.56
2022-12-09T04:18:28.377Z,151169.69
2022-12-09T04:20:58.939Z,151168.41
2022-12-09T04:23:31.695Z,151168.41
2022-12-09T04:26:02.683Z,151165.84
2022-12-09T04:28:33.031Z,151172.28
2022-12-09T04:31:03.624Z,151169.69
2022-12-09T04:33:33.952Z,151174.84
2022-12-09T04:36:09.064Z,151177.44
2022-12-09T04:38:42.004Z,151172.28
2022-12-09T04:41:12.703Z,151173.56
2022-12-09T04:43:43.312Z,151165.84
2022-12-09T04:46:16.940Z,151174.84
2022-12-09T04:48:47.699Z,151171.00
2022-12-09T04:51:18.909Z,151169.69
2022-12-09T04:53:51.953Z,151169.69
2022-12-09T04:56:24.529Z,151177.44
2022-12-09T04:58:56.003Z,151183.84
2022-12-09T05:01:31.282Z,151173.56
2022-12-09T05:04:02.577Z,151160.72
2022-12-09T05:06:33.566Z,151164.53
2022-12-09T05:09:08.560Z,151156.84
2022-12-09T05:11:38.773Z,151160.72
2022-12-09T05:14:09.589Z,151152.97
2022-12-09T05:16:40.849Z,151145.22
2022-12-09T05:19:12.072Z,151150.41
2022-12-09T05:21:44.076Z,151146.53
2022-12-09T05:24:17.224Z,151155.56
2022-12-09T05:26:47.402Z,151165.84
2022-12-09T05:29:22.571Z,151152.97
2022-12-09T05:31:54.692Z,151145.22
2022-12-09T05:34:25.102Z,151145.22
2022-12-09T05:36:55.665Z,151142.66
2022-12-09T05:39:29.239Z,151138.78
2022-12-09T05:41:59.940Z,151152.97
2022-12-09T05:44:31.203Z,151149.09
2022-12-09T05:47:01.539Z,151143.94
2022-12-09T05:49:32.220Z,151132.38
2022-12-09T05:52:02.650Z,151127.22
2022-12-09T05:54:36.402Z,151140.06
2022-12-09T05:57:07.364Z,151136.25
2022-12-09T05:59:37.692Z,151146.53
2022-12-09T06:02:10.285Z,151143.94
2022-12-09T06:04:41.169Z,151147.81
2022-12-09T06:07:11.525Z,151137.53
2022-12-09T06:09:45.152Z,151137.53
2022-12-09T06:12:15.916Z,151143.94
2022-12-09T06:14:46.117Z,151141.41
2022-12-09T06:17:16.468Z,151137.53
2022-12-09T06:19:46.841Z,151145.22
2022-12-09T06:22:17.418Z,151142.66
2022-12-09T06:24:55.626Z,151140.06
2022-12-09T06:27:27.605Z,151131.09
2022-12-09T06:29:58.447Z,151131.09
2022-12-09T06:32:31.556Z,151129.78
2022-12-09T06:35:02.213Z,151134.91
2022-12-09T06:37:32.862Z,151145.22
2022-12-09T06:40:06.041Z,151142.66
2022-12-09T06:42:36.441Z,151142.66
2022-12-09T06:45:08.084Z,151142.66
2022-12-09T06:47:39.928Z,151142.66
2022-12-09T06:50:12.372Z,151145.22
2022-12-09T06:52:44.191Z,151149.09
2022-12-09T06:55:16.922Z,151142.66
2022-12-09T06:57:47.477Z,151142.66
2022-12-09T07:00:19.556Z,151146.53
2022-12-09T07:02:50.293Z,151146.53
2022-12-09T07:10:49.195Z,151173.56
2022-12-09T07:13:23.532Z,151156.84
2022-12-09T07:15:54.604Z,151159.38
2022-12-09T07:18:25.182Z,151152.97
2022-12-09T07:20:55.774Z,151159.38
2022-12-09T07:23:26.110Z,151154.25
2022-12-09T07:26:02.512Z,151168.41
2022-12-09T07:28:32.788Z,151172.28
2022-12-09T07:31:03.862Z,151165.84
2022-12-09T07:33:35.214Z,151162.00
2022-12-09T07:36:05.892Z,151165.84
2022-12-09T07:38:36.371Z,151164.53
2022-12-09T07:41:18.319Z,151163.25
2022-12-09T07:43:49.733Z,151165.84
2022-12-09T07:46:21.821Z,151183.84
2022-12-09T07:48:52.830Z,151190.31
2022-12-09T07:51:24.518Z,151174.84
2022-12-09T07:53:55.630Z,151173.56
2022-12-09T07:56:29.310Z,151178.72
2022-12-09T07:59:00.280Z,151180.03
2022-12-09T08:01:33.107Z,151177.44
2022-12-09T08:04:04.297Z,151186.44
2022-12-09T08:06:34.925Z,151185.19
2022-12-09T08:09:08.044Z,151191.59
2022-12-09T08:11:41.201Z,151196.75
2022-12-09T08:14:15.013Z,151191.59
2022-12-09T08:16:45.716Z,151176.16
2022-12-09T08:19:16.934Z,151178.72
2022-12-09T08:21:52.877Z,151200.63
2022-12-09T08:24:24.830Z,151207.06
2022-12-09T08:26:59.529Z,151228.91
2022-12-09T08:29:30.021Z,151219.94
2022-12-09T08:32:00.679Z,151212.19
2022-12-09T08:34:31.741Z,151205.78
2022-12-09T08:37:03.266Z,151216.06
2022-12-09T08:39:33.762Z,151208.31
2022-12-09T08:42:06.840Z,151212.19
2022-12-09T08:44:37.035Z,151230.25
2022-12-09T08:47:07.816Z,151210.91
2022-12-09T08:49:38.650Z,151219.94
2022-12-09T08:52:08.909Z,151227.66
2022-12-09T08:54:39.437Z,151244.41
2022-12-09T08:57:12.434Z,151235.38
2022-12-09T08:59:45.387Z,151252.13
2022-12-09T09:02:16.393Z,151244.41
2022-12-09T09:04:47.454Z,151245.69
2022-12-09T09:07:18.438Z,151245.69
2022-12-09T09:09:48.812Z,151252.13
2022-12-09T09:12:22.103Z,151244.41
2022-12-09T09:14:53.585Z,151261.16
2022-12-09T09:17:24.163Z,151267.56
2022-12-09T09:19:55.063Z,151272.72
2022-12-09T09:22:25.604Z,151288.22
2022-12-09T09:24:57.571Z,151304.94
2022-12-09T09:27:30.464Z,151311.38
2022-12-09T09:30:00.932Z,151311.38
2022-12-09T09:32:32.913Z,151323.00
2022-12-09T09:35:03.296Z,151330.69
2022-12-09T09:37:34.974Z,151307.50
2022-12-09T09:40:06.202Z,151324.28
2022-12-09T09:42:48.617Z,151342.31
2022-12-09T09:45:23.404Z,151343.59
2022-12-09T09:47:58.362Z,151328.16
2022-12-09T09:50:35.271Z,151335.84
2022-12-09T09:53:16.827Z,151339.72
2022-12-09T09:55:51.836Z,151351.31
2022-12-09T09:58:32.490Z,151359.06
2022-12-09T10:01:08.809Z,151364.19
2022-12-09T10:03:51.149Z,151374.50
2022-12-09T10:06:32.230Z,151387.41
2022-12-09T10:09:11.366Z,151400.25
2022-12-09T10:11:51.600Z,151397.72
2022-12-09T10:14:32.555Z,151409.28
2022-12-09T10:17:14.697Z,151413.16
2022-12-09T10:19:48.686Z,151426.06
2022-12-09T10:22:21.263Z,151426.06
2022-12-09T10:24:54.507Z,151441.53
2022-12-09T10:27:33.566Z,151422.19
2022-12-09T10:30:10.299Z,151449.25
2022-12-09T10:32:42.200Z,151467.31
2022-12-09T10:35:17.960Z,151467.31
2022-12-09T10:37:52.584Z,151459.53
2022-12-09T10:40:27.659Z,151482.75
2022-12-09T10:43:12.427Z,151471.19
2022-12-09T10:46:17.281Z,151481.47
2022-12-09T10:48:46.359Z,151494.34
2022-12-09T10:51:19.598Z,151507.25
2022-12-09T10:53:54.021Z,151534.28
2022-12-09T10:56:29.163Z,151549.81
2022-12-09T10:59:14.517Z,151521.44
2022-12-09T11:01:56.645Z,151502.09
2022-12-09T11:04:29.688Z,151518.84
2022-12-09T11:07:05.231Z,151521.44
2022-12-09T11:09:39.044Z,151533.03
2022-12-09T11:12:18.395Z,151565.28
2022-12-09T11:14:54.836Z,151531.75
2022-12-09T11:17:30.851Z,151518.84
2022-12-09T11:20:20.973Z,151516.28
2022-12-09T11:23:03.404Z,151534.28
2022-12-09T11:25:35.382Z,151533.03
2022-12-09T11:28:08.024Z,151539.50
2022-12-09T11:31:20.521Z,151552.34
2022-12-09T11:34:08.233Z,151575.56
2022-12-09T11:36:43.676Z,151572.97
2022-12-09T11:39:24.831Z,151570.44
2022-12-09T11:42:16.160Z,151588.44
2022-12-09T11:44:58.862Z,151582.00
2022-12-09T11:48:24.210Z,151597.47
2022-12-09T11:50:33.489Z,151616.81
2022-12-09T11:53:26.142Z,151597.47
2022-12-09T11:56:04.194Z,151598.81
2022-12-09T11:58:41.991Z,151603.97
2022-12-09T12:01:18.031Z,151631.00
2022-12-09T12:03:53.100Z,151607.78
2022-12-09T12:06:27.749Z,151611.66
2022-12-09T12:09:03.984Z,151624.56
2022-12-09T12:11:41.428Z,151598.81
2022-12-09T12:14:18.536Z,151593.66
2022-12-09T12:16:55.420Z,151598.81
2022-12-09T12:19:31.116Z,151602.63
2022-12-09T12:22:33.128Z,151596.19
2022-12-09T12:25:20.385Z,151592.31
2022-12-09T12:28:09.011Z,151580.72
2022-12-09T12:30:47.700Z,151596.19
2022-12-09T12:34:07.971Z,151611.66
2022-12-09T12:36:37.419Z,151601.34
2022-12-09T12:39:17.416Z,151598.81
2022-12-09T12:41:55.294Z,151600.06
2022-12-09T12:45:06.168Z,151603.97
2022-12-09T12:47:43.213Z,151598.81
2022-12-09T12:50:41.272Z,151609.13
2022-12-09T12:53:23.950Z,151607.78
2022-12-09T12:56:02.771Z,151629.72
2022-12-09T12:59:02.610Z,151642.59
2022-12-09T13:01:36.579Z,151634.88
2022-12-09T13:04:23.776Z,151621.97
2022-12-09T13:07:00.149Z,151636.16
2022-12-09T13:09:39.334Z,151646.47
2022-12-09T13:12:18.603Z,151647.81
2022-12-09T13:14:55.630Z,151632.28
2022-12-09T13:17:30.145Z,151629.72
2022-12-09T13:20:04.870Z,151633.63
2022-12-09T13:22:44.422Z,151631.00
2022-12-09T13:25:24.828Z,151627.13
2022-12-09T13:28:06.671Z,151625.84
2022-12-09T13:30:42.288Z,151625.84
2022-12-09T13:33:33.884Z,151634.88
2022-12-09T13:36:08.841Z,151634.88
2022-12-09T13:38:42.461Z,151651.63
2022-12-09T13:41:59.167Z,151640.03
2022-12-09T13:44:36.343Z,151652.97
2022-12-09T13:47:27.345Z,151645.19
2022-12-09T13:50:02.323Z,151637.44
2022-12-09T13:52:53.535Z,151629.72
2022-12-09T13:55:41.732Z,151636.16
2022-12-09T13:58:29.091Z,151637.44
2022-12-09T14:01:10.729Z,151647.81
2022-12-09T14:03:49.869Z,151641.31
2022-12-09T14:06:25.676Z,151660.66
2022-12-09T14:09:00.204Z,151646.47
2022-12-09T14:11:47.321Z,151641.31
2022-12-09T14:14:49.920Z,151647.81
2022-12-09T14:18:01.063Z,151660.66
2022-12-09T14:20:40.827Z,151655.50
2022-12-09T14:23:22.142Z,151659.41
2022-12-09T14:26:11.853Z,151652.97
2022-12-09T14:28:54.669Z,151658.13
2022-12-09T14:31:47.315Z,151664.53
2022-12-09T14:34:29.725Z,151667.09
2022-12-09T14:37:11.545Z,151656.78
2022-12-09T14:39:52.941Z,151658.13
2022-12-09T14:42:32.502Z,151659.41
2022-12-09T14:45:15.898Z,151660.66
2022-12-09T14:47:49.836Z,151663.28
2022-12-09T14:50:26.052Z,151668.44
2022-12-09T14:53:00.723Z,151663.28
2022-12-09T14:55:32.737Z,151664.53
2022-12-09T14:58:04.869Z,151659.41
2022-12-09T15:00:40.443Z,151660.66
2022-12-09T15:03:45.411Z,151665.81
2022-12-09T15:06:22.254Z,151658.13
2022-12-09T15:08:56.516Z,151656.78
2022-12-09T15:11:31.608Z,151672.31
2022-12-09T15:14:26.341Z,151669.72
2022-12-09T15:16:57.246Z,151670.97
2022-12-09T15:19:59.198Z,151664.53
2022-12-09T15:22:27.207Z,151661.94
2022-12-09T15:24:57.943Z,151661.94
2022-12-09T15:27:29.673Z,151667.09
2022-12-09T15:30:00.081Z,151670.97
2022-12-09T15:32:32.572Z,151668.44
2022-12-09T15:35:19.240Z,151680.03
2022-12-09T15:37:54.949Z,151678.75
2022-12-09T15:40:29.352Z,151687.78
2022-12-09T15:43:04.290Z,151669.72
2022-12-09T15:45:38.623Z,151670.97
2022-12-09T15:48:16.458Z,151663.28
2022-12-09T15:50:52.475Z,151670.97
2022-12-09T15:53:30.839Z,151673.59
2022-12-09T15:56:06.019Z,151678.75
2022-12-09T15:58:45.943Z,151685.16
2022-12-09T16:01:23.209Z,151690.34
2022-12-09T16:03:54.829Z,151687.78
2022-12-09T16:06:30.036Z,151681.28
2022-12-09T16:09:04.053Z,151689.06
2022-12-09T16:11:42.652Z,151694.22
2022-12-09T16:14:13.467Z,151696.75
2022-12-09T16:16:48.149Z,151698.09
2022-12-09T16:19:29.423Z,151691.59
2022-12-09T16:22:01.682Z,151694.22
2022-12-09T16:25:06.060Z,151720.00
2022-12-09T16:27:29.786Z,151730.31
2022-12-09T16:30:01.707Z,151732.91
2022-12-09T16:32:34.456Z,151741.94
2022-12-09T16:35:22.308Z,151744.50
2022-12-09T16:38:22.914Z,151750.94
2022-12-09T16:41:22.956Z,151771.63
2022-12-09T16:43:58.800Z,151801.28
2022-12-09T16:46:41.641Z,151790.97
2022-12-09T16:49:11.944Z,151792.25
2022-12-09T16:51:42.867Z,151769.00
2022-12-09T16:54:20.834Z,151780.59
2022-12-09T16:56:55.082Z,151789.66
2022-12-09T16:59:30.632Z,151783.22
2022-12-09T17:02:07.493Z,151784.50
2022-12-09T17:04:37.772Z,151794.81
2022-12-09T17:07:07.984Z,151787.09
2022-12-09T17:09:38.048Z,151779.34
2022-12-09T17:12:10.936Z,151792.25
2022-12-09T17:14:41.124Z,151784.50
2022-12-09T17:17:11.280Z,151792.25
2022-12-09T17:19:44.380Z,151783.22
2022-12-09T17:22:14.782Z,151792.25
2022-12-09T17:24:44.997Z,151801.28
2022-12-09T17:27:18.057Z,151801.28
2022-12-09T17:29:48.386Z,151801.28
2022-12-09T17:32:18.903Z,151807.72
2022-12-09T17:34:49.063Z,151818.03
2022-12-09T17:37:21.374Z,151812.88
2022-12-09T17:39:57.105Z,151815.50
2022-12-09T17:42:34.350Z,151814.16
2022-12-09T17:45:04.722Z,151814.16
2022-12-09T17:47:35.340Z,151815.50
2022-12-09T17:50:05.791Z,151841.28
2022-12-09T17:52:37.870Z,151840.00
2022-12-09T17:55:09.227Z,151834.78
2022-12-09T17:57:42.189Z,151841.28
2022-12-09T18:00:15.054Z,151841.28
2022-12-09T18:02:45.451Z,151843.84
2022-12-09T18:05:19.042Z,151859.38
2022-12-09T18:07:49.181Z,151863.25
2022-12-09T18:10:19.701Z,151865.84
2022-12-09T18:12:52.435Z,151876.16
2022-12-09T18:15:25.372Z,151900.69
2022-12-09T18:17:55.597Z,151901.97
2022-12-09T18:20:27.717Z,151916.16
2022-12-09T18:22:58.111Z,151911.00
2022-12-09T18:25:28.374Z,151918.72
2022-12-09T18:28:01.660Z,151921.34
2022-12-09T18:30:33.001Z,151929.09
2022-12-09T18:33:03.375Z,151954.91
2022-12-09T18:35:35.641Z,151944.56
2022-12-09T18:38:10.986Z,151951.00
2022-12-09T18:41:01.168Z,151954.91
2022-12-09T18:43:36.438Z,151974.25
2022-12-09T18:46:07.750Z,151988.47
2022-12-09T18:48:38.752Z,151979.41
2022-12-09T18:51:11.181Z,151985.88
2022-12-09T18:53:41.282Z,151994.91
2022-12-09T18:56:12.541Z,151997.47
2022-12-09T19:01:39.412Z,152014.28
2022-12-09T19:04:13.532Z,152053.00
2022-12-09T19:06:45.590Z,152045.25
2022-12-09T19:09:19.597Z,152045.25
2022-12-09T19:11:51.132Z,152028.47
2022-12-09T19:14:25.684Z,151991.03
2022-12-09T19:16:55.962Z,151963.94
2022-12-09T19:19:28.800Z,151952.28
2022-12-09T19:21:59.435Z,151953.63
2022-12-09T19:24:36.332Z,151957.44
2022-12-09T19:27:08.664Z,151965.22
2022-12-09T19:29:42.329Z,151972.94
2022-12-09T19:32:36.548Z,151974.25
2022-12-09T19:35:02.693Z,151991.03
2022-12-09T19:37:32.968Z,151998.78
2022-12-09T19:40:03.191Z,152003.94
2022-12-09T19:42:33.366Z,152003.94
2022-12-09T19:45:10.506Z,152024.59
2022-12-09T19:47:44.044Z,152022.00
2022-12-09T19:50:14.261Z,152015.56
2022-12-09T19:52:44.285Z,152009.13
2022-12-09T19:55:14.552Z,151994.91
2022-12-09T19:57:44.631Z,151987.13
2022-12-09T20:00:18.799Z,151987.13
2022-12-09T20:02:50.420Z,151998.78
2022-12-09T20:05:20.956Z,151987.13
2022-12-09T20:07:51.964Z,151985.88
2022-12-09T20:10:22.069Z,151979.41
2022-12-09T20:12:52.285Z,151980.69
2022-12-09T20:15:25.989Z,151978.16
2022-12-09T20:17:58.226Z,151979.41
2022-12-09T20:20:28.606Z,151983.31
2022-12-09T20:22:58.715Z,151978.16
2022-12-09T20:25:29.005Z,151979.41
2022-12-09T20:28:01.657Z,151983.31
2022-12-09T20:30:36.104Z,151975.53
2022-12-09T20:33:06.566Z,151965.22
2022-12-09T20:35:42.468Z,151965.22
2022-12-09T20:38:12.769Z,151961.34
2022-12-09T20:40:42.786Z,151965.22
2022-12-09T20:43:12.953Z,151970.38
2022-12-09T20:45:46.661Z,151957.44
2022-12-09T20:48:16.477Z,151985.88
2022-12-09T20:50:46.569Z,151983.31
2022-12-09T20:53:16.990Z,151976.81
2022-12-09T20:55:47.187Z,151966.50
2022-12-09T20:58:17.318Z,151997.47
2022-12-09T21:00:50.816Z,152010.41
2022-12-09T21:03:21.304Z,152045.25
2022-12-09T21:05:51.525Z,152037.53
2022-12-09T21:08:24.656Z,152032.38
2022-12-09T21:11:06.183Z,152067.22
2022-12-09T21:13:40.171Z,152050.41
2022-12-09T21:16:16.074Z,152049.13
2022-12-09T21:18:46.675Z,152054.28
2022-12-09T21:21:17.864Z,152051.69
2022-12-09T21:23:48.496Z,152087.88
2022-12-09T21:26:20.798Z,152117.56
2022-12-09T21:28:51.298Z,152138.22
2022-12-09T21:31:25.767Z,152129.19
2022-12-09T21:33:57.799Z,152127.91
2022-12-09T21:36:30.856Z,152175.69
2022-12-09T21:39:02.049Z,152183.41
2022-12-09T21:41:35.247Z,152196.34
2022-12-09T21:44:27.227Z,152226.06
2022-12-09T21:47:23.892Z,152237.69
2022-12-09T21:49:54.120Z,152245.44
2022-12-09T21:52:24.232Z,152245.44
2022-12-09T21:54:55.567Z,152228.63
2022-12-09T21:57:25.948Z,152242.84
2022-12-09T21:59:58.355Z,152250.63
2022-12-09T22:02:31.010Z,152263.50
2022-12-09T22:05:01.408Z,152272.56
2022-12-09T22:07:31.586Z,152284.22
2022-12-09T22:10:01.640Z,152279.03
2022-12-09T22:12:31.797Z,152291.94
2022-12-09T22:15:02.004Z,152270.00
2022-12-09T22:17:35.822Z,152301.00
2022-12-09T22:20:48.965Z,152306.16
2022-12-09T22:22:57.747Z,152322.94
2022-12-09T22:25:27.945Z,152322.94
2022-12-09T22:27:58.319Z,152329.44
2022-12-09T22:30:28.977Z,152333.31
2022-12-09T22:33:02.839Z,152338.47
2022-12-09T22:35:32.991Z,152342.31
2022-12-09T22:38:08.344Z,152357.81
2022-12-09T22:40:41.981Z,152344.94
2022-12-09T22:43:12.254Z,152339.75
2022-12-09T22:45:43.450Z,152353.97
2022-12-09T22:48:16.352Z,152356.53
2022-12-09T22:50:46.407Z,152356.53
2022-12-09T22:53:16.587Z,152351.38
2022-12-09T22:55:49.441Z,152382.38
2022-12-09T22:58:19.481Z,152372.03
2022-12-09T23:00:50.139Z,152378.53
2022-12-09T23:03:23.254Z,152388.88
2022-12-09T23:05:53.589Z,152399.22
2022-12-09T23:08:23.681Z,152404.38
2022-12-09T23:10:53.941Z,152405.66
2022-12-09T23:13:24.251Z,152405.66
2022-12-09T23:15:54.757Z,152401.75
2022-12-09T23:18:27.630Z,152414.72
2022-12-09T23:20:57.876Z,152395.31
2022-12-09T23:23:28.494Z,152372.03
2022-12-09T23:25:58.511Z,152364.31
2022-12-09T23:28:29.877Z,152368.22
2022-12-09T23:31:01.265Z,152365.59
2022-12-09T23:33:34.477Z,152361.72
2022-12-09T23:36:09.198Z,152363.03
2022-12-09T23:38:39.685Z,152363.03
2022-12-09T23:41:10.693Z,152356.53
2022-12-09T23:43:41.435Z,152352.66
2022-12-09T23:46:16.019Z,152339.75
2022-12-09T23:48:50.855Z,152320.38
2022-12-09T23:51:23.211Z,152311.31
2022-12-09T23:53:55.996Z,152303.56
2022-12-09T23:56:28.806Z,152298.38
2022-12-09T23:59:00.796Z,152297.09
